Time;durP1;ratioP1;P1;durP2;ratioP2;P2;SDS_P1;SDS_P2;PMS_P1;PMS_P2;Temp;Humidity;BMP_temperature;BMP_pressure;BME280_temperature;BME280_humidity;BME280_pressure;Samples;Min_cycle;Max_cycle;Signal;HPM_P1;HPM_P2
2023/11/05 00:01:55;;;;;;;10.80;2.70;;;;;;;;;;2609543;54;20391;-74
2023/11/05 00:04:22;;;;;;;5.60;2.17;;;;;;;;;;2609600;54;20535;-74
2023/11/05 00:06:48;;;;;;;6.77;2.30;;;;;;;;;;2608673;54;20414;-74
2023/11/05 00:09:15;;;;;;;2.97;1.63;;;;;;;;;;2608927;54;20424;-74
2023/11/05 00:11:41;;;;;;;4.90;1.70;;;;;;;;;;2608781;54;20430;-73
2023/11/05 00:14:07;;;;;;;4.90;2.60;;;;;;;;;;2609200;54;20757;-74
2023/11/05 00:16:33;;;;;;;6.57;2.20;;;;;;;;;;2609844;39;20934;-74
2023/11/05 00:18:59;;;;;;;12.17;1.70;;;;;;;;;;2609863;39;20779;-73
2023/11/05 00:21:25;;;;;;;3.83;2.37;;;;;;;;;;2608849;54;20477;-74
2023/11/05 00:23:51;;;;;;;5.90;2.40;;;;;;;;;;2608971;54;20453;-75
2023/11/05 00:26:17;;;;;;;3.77;1.73;;;;;;;;;;2609372;54;20449;-74
2023/11/05 00:28:43;;;;;;;10.43;2.10;;;;;;;;;;2609945;39;20816;-75
2023/11/05 00:31:10;;;;;;;6.83;2.47;;;;;;;;;;2609356;54;20607;-75
2023/11/05 00:33:36;;;;;;;5.40;1.93;;;;;;;;;;2607499;54;20418;-75
2023/11/05 00:36:02;;;;;;;5.50;1.70;;;;;;;;;;2609761;54;20426;-75
2023/11/05 00:38:28;;;;;;;3.27;1.90;;;;;;;;;;2608297;54;20450;-71
2023/11/05 00:40:54;;;;;;;7.13;2.30;;;;;;;;;;2609377;54;20428;-73
2023/11/05 00:43:20;;;;;;;6.83;2.03;;;;;;;;;;2608215;54;20863;-74
2023/11/05 00:45:46;;;;;;;3.97;1.83;;;;;;;;;;2609803;54;20454;-74
2023/11/05 00:48:12;;;;;;;7.53;2.50;;;;;;;;;;2609615;54;20942;-75
2023/11/05 00:50:38;;;;;;;5.80;2.10;;;;;;;;;;2610486;54;20403;-74
2023/11/05 00:53:04;;;;;;;4.00;1.87;;;;;;;;;;2612120;54;20418;-75
2023/11/05 00:55:30;;;;;;;2.80;1.93;;;;;;;;;;2609621;47;20427;-75
2023/11/05 00:57:57;;;;;;;4.83;2.17;;;;;;;;;;2608516;51;20423;-76
2023/11/05 01:00:23;;;;;;;9.70;2.27;;;;;;;;;;2609525;54;20562;-73
2023/11/05 01:02:49;;;;;;;8.77;2.20;;;;;;;;;;2608793;46;20438;-74
2023/11/05 01:05:15;;;;;;;3.80;1.70;;;;;;;;;;2609145;54;20387;-75
2023/11/05 01:07:41;;;;;;;5.63;2.37;;;;;;;;;;2609805;39;20850;-75
2023/11/05 01:10:07;;;;;;;6.73;3.00;;;;;;;;;;2609705;54;20926;-76
2023/11/05 01:12:33;;;;;;;8.43;2.30;;;;;;;;;;2608925;54;20395;-73
2023/11/05 01:14:59;;;;;;;5.50;2.17;;;;;;;;;;2608750;54;20408;-74
2023/11/05 01:17:25;;;;;;;7.70;2.13;;;;;;;;;;2609125;54;20949;-74
2023/11/05 01:19:51;;;;;;;4.93;2.50;;;;;;;;;;2609136;54;21079;-74
2023/11/05 01:22:18;;;;;;;4.50;2.20;;;;;;;;;;2608486;54;20942;-75
2023/11/05 01:24:44;;;;;;;4.77;1.77;;;;;;;;;;2609538;39;21032;-75
2023/11/05 01:27:10;;;;;;;10.40;2.53;;;;;;;;;;2610069;54;20550;-74
2023/11/05 01:29:36;;;;;;;3.20;1.60;;;;;;;;;;2607775;54;20469;-76
2023/11/05 01:32:02;;;;;;;7.07;1.97;;;;;;;;;;2608663;54;20416;-74
2023/11/05 01:34:29;;;;;;;9.63;3.17;;;;;;;;;;2606588;54;20422;-74
2023/11/05 01:36:56;;;;;;;5.97;1.77;;;;;;;;;;2608551;54;20461;-75
2023/11/05 01:39:22;;;;;;;7.30;2.23;;;;;;;;;;2608414;47;20439;-75
2023/11/05 01:41:48;;;;;;;6.17;1.80;;;;;;;;;;2608679;47;20434;-75
2023/11/05 01:44:14;;;;;;;9.53;3.77;;;;;;;;;;2609232;54;20426;-77
2023/11/05 01:46:40;;;;;;;8.83;2.23;;;;;;;;;;2609432;54;20395;-75
2023/11/05 01:49:06;;;;;;;10.03;2.10;;;;;;;;;;2608220;54;20431;-75
2023/11/05 01:51:32;;;;;;;9.63;2.37;;;;;;;;;;2608867;54;21610;-76
2023/11/05 01:53:59;;;;;;;7.80;1.73;;;;;;;;;;2609073;54;20451;-75
2023/11/05 01:56:27;;;;;;;8.10;2.00;;;;;;;;;;2608750;39;20827;-74
2023/11/05 01:58:53;;;;;;;3.93;1.70;;;;;;;;;;2611540;54;20981;-76
2023/11/05 02:01:20;;;;;;;9.23;2.27;;;;;;;;;;2611503;31;20884;-76
2023/11/05 02:03:46;;;;;;;3.70;1.60;;;;;;;;;;2612379;31;20909;-76
2023/11/05 02:06:12;;;;;;;3.77;1.90;;;;;;;;;;2612484;54;20433;-75
2023/11/05 02:08:40;;;;;;;7.13;2.13;;;;;;;;;;2612579;54;20458;-75
2023/11/05 02:11:06;;;;;;;8.33;2.13;;;;;;;;;;2611614;54;20458;-74
2023/11/05 02:13:44;;;;;;;5.33;1.60;;;;;;;;;;2612317;54;20450;-74
2023/11/05 02:16:11;;;;;;;7.33;2.20;;;;;;;;;;2612011;46;20406;-74
2023/11/05 02:18:37;;;;;;;9.90;1.80;;;;;;;;;;2612891;39;20857;-74
2023/11/05 02:21:04;;;;;;;12.20;1.97;;;;;;;;;;2611921;54;20538;-74
2023/11/05 02:23:31;;;;;;;3.43;1.60;;;;;;;;;;2612293;54;21362;-74
2023/11/05 02:25:57;;;;;;;3.77;1.60;;;;;;;;;;2612358;54;20418;-73
2023/11/05 02:28:23;;;;;;;2.63;1.40;;;;;;;;;;2612330;54;20438;-73
2023/11/05 02:30:50;;;;;;;4.60;1.30;;;;;;;;;;2612100;54;20523;-73
2023/11/05 02:33:16;;;;;;;5.97;2.07;;;;;;;;;;2611994;54;21340;-74
2023/11/05 02:35:43;;;;;;;3.47;1.47;;;;;;;;;;2611672;47;20428;-74
2023/11/05 02:38:09;;;;;;;5.70;1.60;;;;;;;;;;2611775;47;20478;-74
2023/11/05 02:40:35;;;;;;;4.93;1.53;;;;;;;;;;2612302;54;20427;-74
2023/11/05 02:43:01;;;;;;;6.70;2.23;;;;;;;;;;2611839;54;20410;-75
2023/11/05 02:45:27;;;;;;;6.60;1.90;;;;;;;;;;2612136;54;20439;-74
2023/11/05 02:47:53;;;;;;;5.23;2.03;;;;;;;;;;2611987;54;20450;-74
2023/11/05 02:50:19;;;;;;;4.43;1.17;;;;;;;;;;2612449;54;20383;-74
2023/11/05 02:52:46;;;;;;;8.07;1.90;;;;;;;;;;2612081;54;20411;-73
2023/11/05 02:55:12;;;;;;;2.00;1.17;;;;;;;;;;2612333;54;20391;-76
2023/11/05 02:57:39;;;;;;;5.10;1.63;;;;;;;;;;2614029;54;21040;-76
2023/11/05 03:00:07;;;;;;;7.90;2.43;;;;;;;;;;2614277;54;20431;-76
2023/11/05 03:02:35;;;;;;;7.40;1.97;;;;;;;;;;2613812;39;20817;-76
2023/11/05 03:05:01;;;;;;;7.27;2.57;;;;;;;;;;2613989;54;20415;-75
2023/11/05 03:07:27;;;;;;;5.20;1.73;;;;;;;;;;2612746;50;20507;-76
2023/11/05 03:09:59;;;;;;;9.17;1.40;;;;;;;;;;2612957;47;20429;-75
2023/11/05 03:12:26;;;;;;;3.00;1.53;;;;;;;;;;2612891;54;20962;-77
2023/11/05 03:14:53;;;;;;;8.60;1.80;;;;;;;;;;2612894;54;20410;-76
2023/11/05 03:17:20;;;;;;;7.30;1.37;;;;;;;;;;2613301;46;20439;-76
2023/11/05 03:19:46;;;;;;;4.37;1.67;;;;;;;;;;2613326;54;20423;-77
2023/11/05 03:22:12;;;;;;;3.50;1.60;;;;;;;;;;2613313;54;20897;-75
2023/11/05 03:24:40;;;;;;;4.60;1.67;;;;;;;;;;2613273;39;21267;-76
2023/11/05 03:27:07;;;;;;;12.67;2.30;;;;;;;;;;2613459;39;20447;-77
2023/11/05 03:29:34;;;;;;;4.57;1.53;;;;;;;;;;2613028;54;20408;-75
2023/11/05 03:32:00;;;;;;;8.13;1.60;;;;;;;;;;2612633;47;20423;-75
2023/11/05 03:34:27;;;;;;;7.20;1.93;;;;;;;;;;2612555;54;20966;-77
2023/11/05 03:36:53;;;;;;;5.57;2.30;;;;;;;;;;2613556;47;20428;-77
2023/11/05 03:39:19;;;;;;;10.03;2.30;;;;;;;;;;2614279;54;20446;-77
2023/11/05 03:41:47;;;;;;;3.77;1.23;;;;;;;;;;2613537;54;20393;-75
2023/11/05 03:44:13;;;;;;;2.43;1.13;;;;;;;;;;2613653;54;20554;-78
2023/11/05 03:46:40;;;;;;;11.70;1.77;;;;;;;;;;2614090;54;20408;-78
2023/11/05 03:49:07;;;;;;;5.60;1.70;;;;;;;;;;2614281;54;20404;-78
2023/11/05 03:51:33;;;;;;;5.20;1.80;;;;;;;;;;2612709;54;20431;-76
2023/11/05 03:53:59;;;;;;;8.37;1.63;;;;;;;;;;2613855;54;20418;-77
2023/11/05 03:56:26;;;;;;;4.10;1.30;;;;;;;;;;2613771;54;20385;-76
2023/11/05 03:58:52;;;;;;;3.00;1.40;;;;;;;;;;2612913;47;20423;-77
2023/11/05 04:01:19;;;;;;;3.67;1.50;;;;;;;;;;2613310;54;20494;-76
2023/11/05 04:03:45;;;;;;;4.90;1.60;;;;;;;;;;2611332;54;20432;-77
2023/11/05 04:06:11;;;;;;;4.10;2.10;;;;;;;;;;2610527;54;20450;-74
2023/11/05 04:08:37;;;;;;;3.20;1.60;;;;;;;;;;2611455;54;20546;-74
2023/11/05 04:11:03;;;;;;;8.53;2.13;;;;;;;;;;2612238;54;20443;-75
2023/11/05 04:13:29;;;;;;;2.17;1.47;;;;;;;;;;2612053;54;20391;-73
2023/11/05 04:15:59;;;;;;;4.20;1.90;;;;;;;;;;2612266;54;20411;-74
2023/11/05 04:18:25;;;;;;;2.87;1.20;;;;;;;;;;2611663;54;20422;-74
2023/11/05 04:20:51;;;;;;;5.20;1.43;;;;;;;;;;2612669;39;20814;-75
2023/11/05 04:23:18;;;;;;;2.60;1.17;;;;;;;;;;2611887;54;20531;-73
2023/11/05 04:25:45;;;;;;;2.40;1.50;;;;;;;;;;2611946;54;20530;-72
2023/11/05 04:28:11;;;;;;;5.20;1.13;;;;;;;;;;2612345;39;20803;-75
2023/11/05 04:30:37;;;;;;;4.87;1.50;;;;;;;;;;2611961;54;20450;-72
2023/11/05 04:33:03;;;;;;;3.93;1.70;;;;;;;;;;2611532;54;21176;-74
2023/11/05 04:35:29;;;;;;;2.50;1.30;;;;;;;;;;2611781;54;20411;-73
2023/11/05 04:37:55;;;;;;;2.97;1.10;;;;;;;;;;2611807;54;20392;-74
2023/11/05 04:40:21;;;;;;;5.10;1.47;;;;;;;;;;2613094;39;21089;-75
2023/11/05 04:42:47;;;;;;;4.27;1.13;;;;;;;;;;2611654;54;20403;-75
2023/11/05 04:45:14;;;;;;;3.90;1.50;;;;;;;;;;2611911;54;20475;-75
2023/11/05 04:47:40;;;;;;;3.10;0.83;;;;;;;;;;2612491;54;20442;-76
2023/11/05 04:50:08;;;;;;;2.60;1.10;;;;;;;;;;2611901;47;20534;-75
2023/11/05 04:52:34;;;;;;;2.40;1.30;;;;;;;;;;2613152;54;20449;-75
2023/11/05 04:55:00;;;;;;;2.90;1.10;;;;;;;;;;2612239;54;20411;-75
2023/11/05 04:57:26;;;;;;;2.10;1.33;;;;;;;;;;2612226;54;20411;-75
2023/11/05 04:59:52;;;;;;;2.80;1.30;;;;;;;;;;2612416;54;20430;-74
2023/11/05 05:02:18;;;;;;;4.30;1.63;;;;;;;;;;2612943;54;20954;-74
2023/11/05 05:04:45;;;;;;;4.07;1.40;;;;;;;;;;2611770;54;20412;-74
2023/11/05 05:07:11;;;;;;;3.00;1.13;;;;;;;;;;2609886;54;20430;-74
2023/11/05 05:09:37;;;;;;;3.63;1.20;;;;;;;;;;2611454;54;20962;-74
2023/11/05 05:12:03;;;;;;;3.47;1.40;;;;;;;;;;2613362;54;20449;-73
2023/11/05 05:14:29;;;;;;;3.77;1.30;;;;;;;;;;2613533;54;20578;-74
2023/11/05 05:16:56;;;;;;;1.80;0.90;;;;;;;;;;2613333;54;20973;-77
2023/11/05 05:19:23;;;;;;;2.90;1.40;;;;;;;;;;2614038;54;20408;-79
2023/11/05 05:21:50;;;;;;;2.03;1.00;;;;;;;;;;2612995;54;20507;-75
2023/11/05 05:24:17;;;;;;;4.50;1.03;;;;;;;;;;2613192;54;20431;-76
2023/11/05 05:26:43;;;;;;;2.17;1.10;;;;;;;;;;2614456;54;20416;-78
2023/11/05 05:29:09;;;;;;;1.90;1.00;;;;;;;;;;2614086;54;20596;-79
2023/11/05 05:31:35;;;;;;;2.07;0.73;;;;;;;;;;2613678;54;20442;-78
2023/11/05 05:34:01;;;;;;;1.83;1.00;;;;;;;;;;2612522;54;20973;-78
2023/11/05 05:36:27;;;;;;;1.87;0.97;;;;;;;;;;2611725;47;20550;-79
2023/11/05 05:38:53;;;;;;;2.00;0.80;;;;;;;;;;2613296;49;20515;-78
2023/11/05 05:41:21;;;;;;;2.20;1.13;;;;;;;;;;2613803;39;20694;-78
2023/11/05 05:43:47;;;;;;;2.27;1.20;;;;;;;;;;2613233;54;20416;-78
2023/11/05 05:46:14;;;;;;;3.87;1.43;;;;;;;;;;2613723;54;20490;-79
2023/11/05 05:48:40;;;;;;;1.87;1.00;;;;;;;;;;2612925;54;20491;-79
2023/11/05 05:51:12;;;;;;;1.40;0.83;;;;;;;;;;2612857;47;20524;-77
2023/11/05 05:53:38;;;;;;;2.43;1.00;;;;;;;;;;2613993;54;20623;-77
2023/11/05 05:56:04;;;;;;;2.20;1.10;;;;;;;;;;2613092;47;20408;-76
2023/11/05 05:58:32;;;;;;;2.70;1.13;;;;;;;;;;2612893;47;20470;-76
2023/11/05 06:00:58;;;;;;;2.43;0.90;;;;;;;;;;2613828;54;20416;-76
2023/11/05 06:03:24;;;;;;;2.50;0.90;;;;;;;;;;2612650;54;20519;-77
2023/11/05 06:05:50;;;;;;;1.53;0.70;;;;;;;;;;2613586;54;20458;-77
2023/11/05 06:08:17;;;;;;;1.90;1.10;;;;;;;;;;2613437;54;21148;-77
2023/11/05 06:10:43;;;;;;;2.00;1.00;;;;;;;;;;2610572;54;20427;-76
2023/11/05 06:13:09;;;;;;;2.07;1.00;;;;;;;;;;2611262;54;20452;-78
2023/11/05 06:15:36;;;;;;;2.73;1.13;;;;;;;;;;2613609;54;20535;-77
2023/11/05 06:18:02;;;;;;;1.50;0.80;;;;;;;;;;2612214;54;20979;-76
2023/11/05 06:20:28;;;;;;;1.93;1.17;;;;;;;;;;2613933;39;20824;-77
2023/11/05 06:22:54;;;;;;;2.40;1.03;;;;;;;;;;2612887;54;20999;-79
2023/11/05 06:25:21;;;;;;;2.03;1.13;;;;;;;;;;2612725;39;20864;-78
2023/11/05 06:27:47;;;;;;;2.47;1.03;;;;;;;;;;2612479;54;20419;-78
2023/11/05 06:30:14;;;;;;;1.90;0.90;;;;;;;;;;2612509;54;20419;-77
2023/11/05 06:32:40;;;;;;;6.07;1.33;;;;;;;;;;2612243;39;21174;-78
2023/11/05 06:35:07;;;;;;;2.50;0.80;;;;;;;;;;2612482;46;20445;-77
2023/11/05 06:37:33;;;;;;;2.50;0.97;;;;;;;;;;2612903;54;21052;-77
2023/11/05 06:40:00;;;;;;;3.47;0.80;;;;;;;;;;2612560;54;20398;-76
2023/11/05 06:42:27;;;;;;;2.47;0.97;;;;;;;;;;2612857;54;20431;-77
2023/11/05 06:44:53;;;;;;;2.70;0.70;;;;;;;;;;2613285;54;20406;-78
2023/11/05 06:47:21;;;;;;;1.37;0.90;;;;;;;;;;2613736;54;20415;-77
2023/11/05 06:49:47;;;;;;;1.63;0.80;;;;;;;;;;2613524;54;20442;-77
2023/11/05 06:52:14;;;;;;;2.37;0.90;;;;;;;;;;2613400;54;20465;-76
2023/11/05 06:54:41;;;;;;;7.73;1.13;;;;;;;;;;2612973;54;20420;-77
2023/11/05 06:57:07;;;;;;;1.87;0.97;;;;;;;;;;2613026;54;20431;-76
2023/11/05 06:59:34;;;;;;;2.53;0.80;;;;;;;;;;2612731;54;20424;-76
2023/11/05 07:02:00;;;;;;;3.30;2.87;;;;;;;;;;2612555;47;20486;-76
2023/11/05 07:04:26;;;;;;;2.60;0.90;;;;;;;;;;2612861;54;20411;-77
2023/11/05 07:06:52;;;;;;;2.60;1.20;;;;;;;;;;2613170;54;20432;-77
2023/11/05 07:09:18;;;;;;;2.40;0.70;;;;;;;;;;2613444;54;20486;-77
2023/11/05 07:11:44;;;;;;;1.30;0.70;;;;;;;;;;2613813;54;20485;-76
2023/11/05 07:14:10;;;;;;;2.33;0.97;;;;;;;;;;2611358;47;20427;-77
2023/11/05 07:16:37;;;;;;;2.10;0.93;;;;;;;;;;2612816;54;20426;-77
2023/11/05 07:19:03;;;;;;;1.40;0.73;;;;;;;;;;2613030;46;20457;-78
2023/11/05 07:21:30;;;;;;;3.40;1.00;;;;;;;;;;2612274;54;20407;-77
2023/11/05 07:23:56;;;;;;;2.90;0.80;;;;;;;;;;2611781;54;20430;-77
2023/11/05 07:26:22;;;;;;;1.83;0.70;;;;;;;;;;2613947;54;20424;-76
2023/11/05 07:28:48;;;;;;;2.33;0.73;;;;;;;;;;2614198;54;20453;-78
2023/11/05 07:31:19;;;;;;;1.90;0.63;;;;;;;;;;2613538;54;20570;-75
2023/11/05 07:33:45;;;;;;;2.00;0.87;;;;;;;;;;2613177;54;21084;-77
2023/11/05 07:36:11;;;;;;;2.93;1.00;;;;;;;;;;2614177;47;20412;-76
2023/11/05 07:38:37;;;;;;;1.90;0.77;;;;;;;;;;2613214;54;20483;-74
2023/11/05 07:41:04;;;;;;;1.67;0.77;;;;;;;;;;2611559;54;20457;-74
2023/11/05 07:43:30;;;;;;;1.60;0.70;;;;;;;;;;2610848;54;21052;-74
2023/11/05 07:45:57;;;;;;;2.10;0.70;;;;;;;;;;2611218;39;20911;-74
2023/11/05 07:48:23;;;;;;;8.27;1.20;;;;;;;;;;2612390;54;20423;-73
2023/11/05 07:50:50;;;;;;;1.90;0.80;;;;;;;;;;2611807;54;20853;-74
2023/11/05 07:53:17;;;;;;;1.90;0.80;;;;;;;;;;2611655;54;20435;-75
2023/11/05 07:55:43;;;;;;;2.40;0.70;;;;;;;;;;2612051;47;20590;-76
2023/11/05 07:58:09;;;;;;;2.43;0.90;;;;;;;;;;2612396;54;20412;-74
2023/11/05 08:00:35;;;;;;;2.40;1.17;;;;;;;;;;2611665;54;20404;-75
2023/11/05 08:03:02;;;;;;;1.80;0.80;;;;;;;;;;2612018;54;20430;-75
2023/11/05 08:05:29;;;;;;;1.80;1.00;;;;;;;;;;2611996;54;20434;-74
2023/11/05 08:07:55;;;;;;;1.97;0.80;;;;;;;;;;2611437;47;20422;-79
2023/11/05 08:10:21;;;;;;;5.03;0.80;;;;;;;;;;2611828;47;20995;-73
2023/11/05 08:12:47;;;;;;;2.40;1.00;;;;;;;;;;2612271;54;20388;-76
2023/11/05 08:15:13;;;;;;;2.33;1.30;;;;;;;;;;2612956;39;20789;-75
2023/11/05 08:17:40;;;;;;;2.23;1.30;;;;;;;;;;2612483;54;20430;-74
2023/11/05 08:20:06;;;;;;;3.13;1.30;;;;;;;;;;2610676;47;20471;-75
2023/11/05 08:22:32;;;;;;;3.20;1.50;;;;;;;;;;2611311;54;20396;-75
2023/11/05 08:24:58;;;;;;;2.27;1.10;;;;;;;;;;2612309;54;20436;-73
2023/11/05 08:27:24;;;;;;;2.67;1.30;;;;;;;;;;2611847;47;20416;-74
2023/11/05 08:29:51;;;;;;;2.00;1.33;;;;;;;;;;2612004;54;20404;-73
2023/11/05 08:32:20;;;;;;;6.17;1.90;;;;;;;;;;2612466;54;20406;-73
2023/11/05 08:34:46;;;;;;;2.10;1.00;;;;;;;;;;2612789;39;20795;-75
2023/11/05 08:37:12;;;;;;;2.77;1.83;;;;;;;;;;2611817;47;20465;-74
2023/11/05 08:39:39;;;;;;;2.20;1.23;;;;;;;;;;2612640;39;20765;-74
2023/11/05 08:42:07;;;;;;;2.17;1.50;;;;;;;;;;2612707;54;20427;-74
2023/11/05 08:44:33;;;;;;;2.83;2.17;;;;;;;;;;2612252;54;20404;-75
2023/11/05 08:47:00;;;;;;;2.27;1.83;;;;;;;;;;2612760;54;20431;-77
2023/11/05 08:49:26;;;;;;;2.47;1.57;;;;;;;;;;2613081;54;20432;-79
2023/11/05 08:51:53;;;;;;;3.77;1.37;;;;;;;;;;2612496;54;20434;-78
2023/11/05 08:54:20;;;;;;;2.83;2.37;;;;;;;;;;2612466;54;20415;-78
2023/11/05 08:56:46;;;;;;;2.70;1.90;;;;;;;;;;2611903;54;20412;-77
2023/11/05 08:59:12;;;;;;;2.10;1.60;;;;;;;;;;2612749;39;20856;-77
2023/11/05 09:01:38;;;;;;;2.13;1.67;;;;;;;;;;2611612;54;20454;-78
2023/11/05 09:04:04;;;;;;;2.43;1.33;;;;;;;;;;2612134;46;20435;-78
2023/11/05 09:06:30;;;;;;;2.57;1.70;;;;;;;;;;2612546;54;20416;-78
2023/11/05 09:08:57;;;;;;;2.40;1.60;;;;;;;;;;2612397;47;20427;-78
2023/11/05 09:11:25;;;;;;;2.30;1.90;;;;;;;;;;2612002;47;20415;-79
2023/11/05 09:13:52;;;;;;;2.70;1.50;;;;;;;;;;2613028;54;20526;-78
2023/11/05 09:16:18;;;;;;;2.10;1.37;;;;;;;;;;2613244;54;20510;-78
2023/11/05 09:18:44;;;;;;;3.33;1.97;;;;;;;;;;2612133;47;20439;-78
2023/11/05 09:21:10;;;;;;;2.53;2.30;;;;;;;;;;2612413;39;20790;-77
2023/11/05 09:23:36;;;;;;;3.13;2.13;;;;;;;;;;2613772;46;20457;-78
2023/11/05 09:26:03;;;;;;;3.60;1.90;;;;;;;;;;2613338;54;21105;-79
2023/11/05 09:28:29;;;;;;;2.67;1.60;;;;;;;;;;2612659;54;20418;-79
2023/11/05 09:30:55;;;;;;;2.63;1.73;;;;;;;;;;2613099;54;20548;-79
2023/11/05 09:33:22;;;;;;;2.97;1.97;;;;;;;;;;2613835;54;20450;-78
2023/11/05 09:35:48;;;;;;;8.30;1.80;;;;;;;;;;2612586;54;20490;-79
2023/11/05 09:38:14;;;;;;;2.67;2.17;;;;;;;;;;2613172;54;20546;-79
2023/11/05 09:40:40;;;;;;;4.27;2.03;;;;;;;;;;2613029;54;20419;-79
2023/11/05 09:43:10;;;;;;;2.40;1.90;;;;;;;;;;2613002;54;20415;-79
2023/11/05 09:45:36;;;;;;;3.23;2.70;;;;;;;;;;2613361;54;20431;-79
2023/11/05 09:48:07;;;;;;;3.40;2.10;;;;;;;;;;2612579;47;21577;-78
2023/11/05 09:50:34;;;;;;;3.33;2.10;;;;;;;;;;2612481;54;20556;-78
2023/11/05 09:53:17;;;;;;;3.77;1.60;;;;;;;;;;2610338;51;20450;-77
2023/11/05 09:55:47;;;;;;;3.40;2.10;;;;;;;;;;2610117;47;20446;-75
2023/11/05 09:58:14;;;;;;;2.10;1.50;;;;;;;;;;2610542;54;20432;-74
2023/11/05 10:00:40;;;;;;;2.73;1.83;;;;;;;;;;2611942;54;20403;-75
2023/11/05 10:03:08;;;;;;;5.17;1.67;;;;;;;;;;2611995;54;20531;-75
2023/11/05 10:05:35;;;;;;;3.03;1.03;;;;;;;;;;2612381;39;20818;-75
2023/11/05 10:08:01;;;;;;;2.20;1.43;;;;;;;;;;2612042;54;20388;-75
2023/11/05 10:10:27;;;;;;;2.20;1.50;;;;;;;;;;2610348;47;20408;-73
2023/11/05 10:12:54;;;;;;;2.93;1.37;;;;;;;;;;2611643;49;21083;-75
2023/11/05 10:15:24;;;;;;;5.17;2.37;;;;;;;;;;2611391;39;21158;-76
2023/11/05 10:17:50;;;;;;;3.43;1.30;;;;;;;;;;2611146;54;20423;-76
2023/11/05 10:20:20;;;;;;;3.47;1.97;;;;;;;;;;2611279;54;20418;-75
2023/11/05 10:22:47;;;;;;;3.63;1.70;;;;;;;;;;2611450;54;20424;-73
2023/11/05 10:25:24;;;;;;;4.03;1.73;;;;;;;;;;2612155;54;20407;-75
2023/11/05 10:27:51;;;;;;;3.90;1.30;;;;;;;;;;2611941;46;20530;-76
2023/11/05 10:30:18;;;;;;;4.40;2.03;;;;;;;;;;2611992;54;20423;-74
2023/11/05 10:32:46;;;;;;;6.70;2.10;;;;;;;;;;2608990;54;20404;-76
2023/11/05 10:35:13;;;;;;;3.20;1.03;;;;;;;;;;2611174;54;20465;-75
2023/11/05 10:37:42;;;;;;;1.80;1.10;;;;;;;;;;2612652;39;20773;-76
2023/11/05 10:40:08;;;;;;;2.10;1.13;;;;;;;;;;2612570;54;20437;-75
2023/11/05 10:42:36;;;;;;;3.90;1.33;;;;;;;;;;2611837;54;20423;-75
2023/11/05 10:45:03;;;;;;;1.80;0.80;;;;;;;;;;2611695;54;20430;-76
2023/11/05 10:47:31;;;;;;;1.50;0.70;;;;;;;;;;2611896;54;20404;-77
2023/11/05 10:49:59;;;;;;;2.57;1.50;;;;;;;;;;2612218;54;20454;-77
2023/11/05 10:52:25;;;;;;;1.70;0.90;;;;;;;;;;2611483;54;21045;-75
2023/11/05 10:55:07;;;;;;;6.03;1.10;;;;;;;;;;2612076;54;20439;-75
2023/11/05 10:57:47;;;;;;;7.00;1.40;;;;;;;;;;2611828;54;20451;-76
2023/11/05 11:00:25;;;;;;;2.40;1.00;;;;;;;;;;2611228;54;20379;-76
2023/11/05 11:02:52;;;;;;;2.43;1.20;;;;;;;;;;2610712;54;20455;-76
2023/11/05 11:05:20;;;;;;;2.13;1.20;;;;;;;;;;2612309;54;20450;-76
2023/11/05 11:07:47;;;;;;;2.53;1.00;;;;;;;;;;2612689;54;20416;-75
2023/11/05 11:10:22;;;;;;;5.00;1.47;;;;;;;;;;2611615;54;20465;-76
2023/11/05 11:12:50;;;;;;;2.77;1.57;;;;;;;;;;2612006;39;20980;-76
2023/11/05 11:15:36;;;;;;;2.43;1.70;;;;;;;;;;2612624;54;20483;-76
2023/11/05 11:18:03;;;;;;;2.33;1.40;;;;;;;;;;2611550;46;20457;-74
2023/11/05 11:20:34;;;;;;;1.80;1.10;;;;;;;;;;2611717;54;20407;-76
2023/11/05 11:23:02;;;;;;;1.87;0.97;;;;;;;;;;2611450;54;20507;-77
2023/11/05 11:25:30;;;;;;;2.83;1.67;;;;;;;;;;2611450;54;20408;-76
2023/11/05 11:27:59;;;;;;;2.87;1.43;;;;;;;;;;2612381;54;20435;-77
2023/11/05 11:30:25;;;;;;;9.90;1.90;;;;;;;;;;2612348;47;21055;-76
2023/11/05 11:32:53;;;;;;;9.50;2.20;;;;;;;;;;2610870;54;20431;-75
2023/11/05 11:35:21;;;;;;;2.50;1.40;;;;;;;;;;2611549;46;20446;-75
2023/11/05 11:37:47;;;;;;;3.00;1.53;;;;;;;;;;2610703;47;20535;-75
2023/11/05 11:40:13;;;;;;;3.33;2.00;;;;;;;;;;2611761;54;20573;-76
2023/11/05 11:42:40;;;;;;;3.13;1.17;;;;;;;;;;2612012;54;20458;-75
2023/11/05 11:45:06;;;;;;;3.30;1.30;;;;;;;;;;2610890;54;20547;-76
2023/11/05 11:47:33;;;;;;;2.70;1.80;;;;;;;;;;2611316;54;20412;-72
2023/11/05 11:50:06;;;;;;;3.43;2.00;;;;;;;;;;2611710;54;20388;-74
2023/11/05 11:52:33;;;;;;;4.00;1.47;;;;;;;;;;2610562;54;21068;-73
2023/11/05 11:54:59;;;;;;;2.20;1.30;;;;;;;;;;2610826;54;20424;-74
2023/11/05 11:57:26;;;;;;;4.30;2.10;;;;;;;;;;2612852;54;20403;-74
2023/11/05 11:59:52;;;;;;;4.90;2.20;;;;;;;;;;2611827;54;20427;-74
2023/11/05 12:02:18;;;;;;;3.70;2.13;;;;;;;;;;2611180;39;20833;-74
2023/11/05 12:04:46;;;;;;;2.53;1.43;;;;;;;;;;2612288;54;20514;-74
2023/11/05 12:07:12;;;;;;;4.10;2.00;;;;;;;;;;2612569;54;20404;-74
2023/11/05 12:09:40;;;;;;;3.50;2.13;;;;;;;;;;2612038;46;20413;-73
2023/11/05 12:12:07;;;;;;;2.80;2.00;;;;;;;;;;2610507;54;20442;-72
2023/11/05 12:14:33;;;;;;;4.30;2.27;;;;;;;;;;2611912;39;20834;-73
2023/11/05 12:17:00;;;;;;;5.40;1.60;;;;;;;;;;2613490;39;20812;-76
2023/11/05 12:19:29;;;;;;;3.07;2.30;;;;;;;;;;2613513;46;20445;-75
2023/11/05 12:21:56;;;;;;;2.53;1.40;;;;;;;;;;2613617;54;20411;-76
2023/11/05 12:24:22;;;;;;;7.40;2.40;;;;;;;;;;2614117;39;20898;-75
2023/11/05 12:26:50;;;;;;;3.47;1.70;;;;;;;;;;2613181;47;20424;-76
2023/11/05 12:29:16;;;;;;;2.57;1.80;;;;;;;;;;2612844;54;20415;-75
2023/11/05 12:31:44;;;;;;;2.70;1.83;;;;;;;;;;2614076;39;20840;-76
2023/11/05 12:34:11;;;;;;;3.20;1.70;;;;;;;;;;2612741;54;20444;-77
2023/11/05 12:36:38;;;;;;;3.50;1.60;;;;;;;;;;2614481;39;20847;-76
2023/11/05 12:39:04;;;;;;;4.77;2.03;;;;;;;;;;2612710;54;20411;-76
2023/11/05 12:41:31;;;;;;;3.33;2.10;;;;;;;;;;2611791;54;20423;-76
2023/11/05 12:43:59;;;;;;;3.40;1.80;;;;;;;;;;2612492;54;20546;-76
2023/11/05 12:46:26;;;;;;;5.93;2.50;;;;;;;;;;2613204;47;20423;-82
2023/11/05 12:48:52;;;;;;;3.70;2.53;;;;;;;;;;2613531;54;20470;-78
2023/11/05 12:51:18;;;;;;;3.93;2.97;;;;;;;;;;2612141;54;21008;-78
2023/11/05 12:53:44;;;;;;;5.13;3.60;;;;;;;;;;2611598;47;20439;-77
2023/11/05 12:56:10;;;;;;;3.60;3.03;;;;;;;;;;2612037;54;20411;-78
2023/11/05 12:58:38;;;;;;;7.20;4.87;;;;;;;;;;2610888;47;20439;-76
2023/11/05 13:01:05;;;;;;;9.97;3.47;;;;;;;;;;2612020;39;20832;-78
2023/11/05 13:03:31;;;;;;;8.33;4.10;;;;;;;;;;2611442;54;20418;-77
2023/11/05 13:05:57;;;;;;;8.37;5.13;;;;;;;;;;2612069;54;20427;-76
2023/11/05 13:08:24;;;;;;;7.87;4.43;;;;;;;;;;2612060;54;20959;-75
2023/11/05 13:10:51;;;;;;;6.00;3.83;;;;;;;;;;2612167;39;21221;-76
2023/11/05 13:13:17;;;;;;;10.30;3.63;;;;;;;;;;2611966;54;20442;-77
2023/11/05 13:15:44;;;;;;;6.60;4.07;;;;;;;;;;2612099;54;20439;-76
2023/11/05 13:18:10;;;;;;;5.63;3.70;;;;;;;;;;2612347;31;20986;-76
2023/11/05 13:20:36;;;;;;;10.60;4.60;;;;;;;;;;2611973;54;20438;-76
2023/11/05 13:23:03;;;;;;;5.27;3.63;;;;;;;;;;2611960;39;20737;-75
2023/11/05 13:25:29;;;;;;;6.30;4.53;;;;;;;;;;2612115;39;20800;-76
2023/11/05 13:27:57;;;;;;;5.67;4.00;;;;;;;;;;2612983;54;20528;-78
2023/11/05 13:30:25;;;;;;;5.53;4.40;;;;;;;;;;2612315;54;20411;-79
2023/11/05 13:32:51;;;;;;;8.87;4.97;;;;;;;;;;2612017;39;21185;-77
2023/11/05 13:35:18;;;;;;;5.20;4.00;;;;;;;;;;2612882;39;20883;-78
2023/11/05 13:37:47;;;;;;;7.40;5.37;;;;;;;;;;2611825;54;21095;-77
2023/11/05 13:40:15;;;;;;;8.33;6.40;;;;;;;;;;2611702;47;20404;-77
2023/11/05 13:42:41;;;;;;;9.30;5.17;;;;;;;;;;2612769;54;20423;-78
2023/11/05 13:45:09;;;;;;;10.63;5.93;;;;;;;;;;2612748;31;20937;-76
2023/11/05 13:47:35;;;;;;;7.60;5.40;;;;;;;;;;2611970;54;20427;-78
2023/11/05 13:50:06;;;;;;;17.97;7.10;;;;;;;;;;2612524;39;20829;-77
2023/11/05 13:52:32;;;;;;;5.30;3.90;;;;;;;;;;2612778;54;20408;-76
2023/11/05 13:54:58;;;;;;;5.10;4.60;;;;;;;;;;2612430;39;20841;-77
2023/11/05 13:57:24;;;;;;;7.60;4.80;;;;;;;;;;2612309;39;20467;-77
2023/11/05 13:59:51;;;;;;;8.03;5.57;;;;;;;;;;2611648;54;20789;-77
2023/11/05 14:02:17;;;;;;;5.23;4.00;;;;;;;;;;2609843;54;20444;-77
2023/11/05 14:04:43;;;;;;;11.63;4.23;;;;;;;;;;2611414;54;20416;-76
2023/11/05 14:07:11;;;;;;;10.73;4.83;;;;;;;;;;2612347;54;20518;-77
2023/11/05 14:09:37;;;;;;;7.83;4.53;;;;;;;;;;2611275;54;20921;-76
2023/11/05 14:12:08;;;;;;;10.77;4.83;;;;;;;;;;2612146;47;21002;-76
2023/11/05 14:14:35;;;;;;;6.30;4.47;;;;;;;;;;2611846;54;20416;-76
2023/11/05 14:17:01;;;;;;;8.77;5.17;;;;;;;;;;2610657;54;20539;-75
2023/11/05 14:19:28;;;;;;;8.50;5.10;;;;;;;;;;2610442;54;21307;-76
2023/11/05 14:21:55;;;;;;;7.10;3.73;;;;;;;;;;2610526;48;20424;-75
2023/11/05 14:24:21;;;;;;;12.23;4.93;;;;;;;;;;2611133;54;20411;-74
2023/11/05 14:26:47;;;;;;;7.80;4.60;;;;;;;;;;2609805;54;20959;-75
2023/11/05 14:29:13;;;;;;;5.60;4.60;;;;;;;;;;2611763;54;20454;-76
2023/11/05 14:31:39;;;;;;;6.97;4.83;;;;;;;;;;2611969;54;20404;-75
2023/11/05 14:34:06;;;;;;;6.50;3.03;;;;;;;;;;2612792;54;20470;-75
2023/11/05 14:36:33;;;;;;;4.67;3.87;;;;;;;;;;2611766;47;20423;-76
2023/11/05 14:38:59;;;;;;;4.90;4.30;;;;;;;;;;2611841;54;20419;-76
2023/11/05 14:41:26;;;;;;;6.43;4.03;;;;;;;;;;2611984;54;21037;-76